Sparta, Michigan
Current Conditions -  °F | °C
As of 3:53 PM on Friday 24 Oct 2014 (Local Time) from KGRR Reporting Station
Broken Clouds Broken Clouds  
Wind Chill: 16°   Ceiling: 3300
Heat Index: 16°   Visibility: 8mi
Dew Point: 10°   Wind: 10mph
Humidity: 69%   Direction: 270°W
Pressure: 29.99"   Gusts: NA
Location:  43.16°N, 85.71°W
Report Text: KGRR 241953Z 27009KT 8SM SCT025 BKN033 BKN050 16/10 A2999 RMK AO2 SLP156 T01560100
Loading
Personal Weather Stations






























Interactive Weather Map
Tropical Storm Tracking
New forecast layout! Learn more

10-Day Weather Forecast

Advertisements
Track Severe Weather on mobile